Time;durP1;ratioP1;P1;durP2;ratioP2;P2;SDS_P1;SDS_P2;PMS_P1;PMS_P2;Temp;Humidity;BMP_temperature;BMP_pressure;BME280_temperature;BME280_humidity;BME280_pressure;Samples;Min_cycle;Max_cycle;Signal;HPM_P1;HPM_P2
2023/04/30 00:00:28;;;;;;;1.35;0.40;;;14.50;99.90;;;;;;5040434;28;20017;-59
2023/04/30 00:02:56;;;;;;;0.75;0.55;;;14.70;99.90;;;;;;5051752;28;20394;-59
2023/04/30 00:05:23;;;;;;;0.38;0.20;;;14.80;99.90;;;;;;5050528;28;20159;-59
2023/04/30 00:07:51;;;;;;;0.22;0.22;;;14.90;99.90;;;;;;5040310;28;20539;-59
2023/04/30 00:10:18;;;;;;;2.33;0.55;;;15.00;99.90;;;;;;5050741;28;20067;-59
2023/04/30 00:12:45;;;;;;;2.65;0.90;;;15.10;99.90;;;;;;5035054;28;20389;-59
2023/04/30 00:15:13;;;;;;;0.30;0.20;;;15.20;99.90;;;;;;5032198;28;20033;-59
2023/04/30 00:17:40;;;;;;;0.25;0.20;;;15.30;99.90;;;;;;5043947;28;20393;-59
2023/04/30 00:20:08;;;;;;;0.35;0.30;;;15.30;99.90;;;;;;5051892;28;20070;-59
2023/04/30 00:22:36;;;;;;;0.28;0.28;;;15.40;99.90;;;;;;5051631;28;20025;-60
2023/04/30 00:25:03;;;;;;;1.98;0.75;;;15.50;99.90;;;;;;5051248;28;20025;-60
2023/04/30 00:27:31;;;;;;;0.50;0.28;;;15.70;99.90;;;;;;5050917;28;20083;-59
2023/04/30 00:29:58;;;;;;;0.95;0.20;;;15.90;99.90;;;;;;5038714;28;20030;-59
2023/04/30 00:32:26;;;;;;;0.93;0.32;;;15.90;99.90;;;;;;5041505;28;20021;-60
2023/04/30 00:34:53;;;;;;;0.47;0.32;;;16.10;99.90;;;;;;5039761;28;20037;-60
2023/04/30 00:37:21;;;;;;;0.88;0.30;;;16.20;99.90;;;;;;5022938;28;20501;-59
2023/04/30 00:39:48;;;;;;;0.40;0.25;;;16.40;99.90;;;;;;5038131;28;20037;-59
2023/04/30 00:42:16;;;;;;;3.05;0.65;;;16.60;99.90;;;;;;5019365;28;20025;-59
2023/04/30 00:44:43;;;;;;;0.40;0.17;;;16.70;99.90;;;;;;5015960;28;20670;-60
2023/04/30 00:47:10;;;;;;;0.20;0.10;;;17.00;99.90;;;;;;5037056;28;20053;-61
2023/04/30 00:49:38;;;;;;;0.35;0.30;;;17.20;99.90;;;;;;5041703;28;20067;-60
2023/04/30 00:52:06;;;;;;;1.88;0.20;;;17.20;99.90;;;;;;5031422;28;20040;-60
2023/04/30 00:54:33;;;;;;;0.82;0.22;;;17.20;99.90;;;;;;5031307;28;20562;-60
2023/04/30 00:57:02;;;;;;;0.00;0.00;;;17.20;99.90;;;;;;5042684;28;20044;-59
2023/04/30 00:59:31;;;;;;;0.30;0.20;;;17.20;99.90;;;;;;5047689;28;20107;-60
2023/04/30 01:01:58;;;;;;;0.22;0.22;;;17.20;99.90;;;;;;5050655;28;20033;-60
2023/04/30 01:04:26;;;;;;;0.10;0.10;;;17.20;99.90;;;;;;5046182;28;20017;-59
2023/04/30 01:06:53;;;;;;;0.10;0.10;;;17.30;99.90;;;;;;5039203;28;20502;-59
2023/04/30 01:09:21;;;;;;;0.60;0.20;;;17.50;99.90;;;;;;5044831;28;20080;-58
2023/04/30 01:12:20;;;;;;;0.20;0.20;;;17.70;99.90;;;;;;5044745;28;20017;-60
2023/04/30 01:15:02;;;;;;;0.15;0.15;;;17.90;99.90;;;;;;5028606;28;20036;-59
2023/04/30 01:17:35;;;;;;;0.20;0.10;;;18.10;99.90;;;;;;5035765;28;20386;-59
2023/04/30 01:20:04;;;;;;;0.10;0.10;;;18.30;99.90;;;;;;5031252;28;20044;-59
2023/04/30 01:22:52;;;;;;;0.35;0.10;;;18.40;99.90;;;;;;5031228;28;20029;-59
2023/04/30 01:25:42;;;;;;;0.55;0.20;;;18.70;99.90;;;;;;5043142;28;20067;-59
2023/04/30 01:28:15;;;;;;;0.10;0.10;;;18.80;99.90;;;;;;5029176;28;20107;-60
2023/04/30 01:30:45;;;;;;;0.30;0.13;;;18.80;99.90;;;;;;5039863;28;20071;-59
2023/04/30 01:33:14;;;;;;;0.25;0.20;;;18.80;99.90;;;;;;5037234;28;20049;-59
2023/04/30 01:36:02;;;;;;;0.10;0.10;;;18.70;99.90;;;;;;5033657;28;20021;-59
2023/04/30 01:39:19;;;;;;;0.00;0.00;;;18.80;99.90;;;;;;5037908;28;20554;-59
2023/04/30 01:42:05;;;;;;;0.52;0.25;;;19.00;99.90;;;;;;4978013;28;20069;-60
2023/04/30 01:44:49;;;;;;;0.13;0.10;;;19.00;99.90;;;;;;4972884;28;20377;-60
2023/04/30 01:47:28;;;;;;;0.88;0.20;;;18.90;99.90;;;;;;5027817;28;20115;-60
2023/04/30 01:50:20;;;;;;;0.57;0.17;;;18.90;99.90;;;;;;5041250;28;20033;-60
2023/04/30 01:52:58;;;;;;;0.10;0.10;;;18.80;99.90;;;;;;5043445;28;20020;-60
2023/04/30 01:55:40;;;;;;;0.17;0.17;;;18.80;99.90;;;;;;5049528;28;20013;-60
2023/04/30 01:58:12;;;;;;;0.10;0.10;;;18.90;99.90;;;;;;5050023;28;20064;-60
2023/04/30 02:00:40;;;;;;;0.10;0.10;;;19.00;99.90;;;;;;5046530;28;20492;-60
2023/04/30 02:03:07;;;;;;;0.10;0.10;;;19.00;99.90;;;;;;5038213;28;20764;-60
2023/04/30 02:05:35;;;;;;;0.30;0.20;;;18.90;99.90;;;;;;5045081;28;20025;-60
2023/04/30 02:08:02;;;;;;;0.10;0.10;;;18.90;99.90;;;;;;5033537;28;20136;-59
2023/04/30 02:10:30;;;;;;;1.75;0.10;;;19.00;99.90;;;;;;5032166;28;20115;-59
2023/04/30 02:12:57;;;;;;;0.22;0.20;;;19.00;99.90;;;;;;5030511;28;20429;-62
2023/04/30 02:15:25;;;;;;;0.55;0.20;;;19.10;99.90;;;;;;5045316;28;20029;-63
2023/04/30 02:17:52;;;;;;;0.63;0.10;;;19.30;99.90;;;;;;5029171;28;20029;-62
2023/04/30 02:20:20;;;;;;;0.10;0.10;;;19.50;99.90;;;;;;5030309;28;20029;-62
2023/04/30 02:22:47;;;;;;;0.10;0.10;;;19.40;99.90;;;;;;5029816;28;20535;-62
2023/04/30 02:25:15;;;;;;;1.35;0.32;;;19.50;99.90;;;;;;5029720;28;20026;-62
2023/04/30 02:27:42;;;;;;;0.20;0.20;;;19.60;99.90;;;;;;5029693;28;20033;-62
2023/04/30 02:30:10;;;;;;;0.15;0.10;;;19.60;99.90;;;;;;5029519;28;20439;-62
2023/04/30 02:32:37;;;;;;;0.17;0.10;;;19.60;99.90;;;;;;5030766;28;20028;-63
2023/04/30 02:35:05;;;;;;;1.65;0.10;;;19.60;99.90;;;;;;5029707;28;20371;-63
2023/04/30 02:37:32;;;;;;;0.10;0.10;;;19.50;99.90;;;;;;5029314;28;20387;-63
2023/04/30 02:40:00;;;;;;;0.13;0.10;;;19.20;99.90;;;;;;5035549;28;20029;-64
2023/04/30 02:42:27;;;;;;;0.65;0.20;;;19.00;99.90;;;;;;5049215;28;20505;-63
2023/04/30 02:44:55;;;;;;;0.10;0.10;;;18.80;99.90;;;;;;5031476;28;20067;-63
2023/04/30 02:47:22;;;;;;;0.32;0.10;;;18.70;99.90;;;;;;5042738;28;20095;-63
2023/04/30 02:49:50;;;;;;;0.10;0.10;;;18.70;99.90;;;;;;5037426;28;20075;-63
2023/04/30 02:52:17;;;;;;;0.55;0.20;;;18.70;99.90;;;;;;5053512;28;20025;-63
2023/04/30 02:54:44;;;;;;;0.10;0.10;;;18.80;99.90;;;;;;5038122;28;20052;-63
2023/04/30 02:57:12;;;;;;;0.10;0.10;;;18.90;99.90;;;;;;5055779;28;20036;-63
2023/04/30 02:59:44;;;;;;;0.05;0.05;;;19.00;99.90;;;;;;5036432;28;20385;-62
2023/04/30 03:02:12;;;;;;;0.10;0.10;;;19.20;99.90;;;;;;5049256;28;20060;-62
2023/04/30 03:04:40;;;;;;;0.03;0.03;;;19.20;99.90;;;;;;5055983;28;20021;-64
2023/04/30 03:07:07;;;;;;;0.15;0.15;;;19.20;99.90;;;;;;5052163;28;20021;-64
2023/04/30 03:09:35;;;;;;;0.10;0.10;;;19.00;99.90;;;;;;5037657;28;20560;-64
2023/04/30 03:12:03;;;;;;;0.10;0.10;;;19.00;99.90;;;;;;5035943;28;20033;-63
2023/04/30 03:14:30;;;;;;;0.20;0.20;;;19.20;99.90;;;;;;5035920;28;20029;-63
2023/04/30 03:16:58;;;;;;;0.10;0.10;;;19.30;99.90;;;;;;5017896;28;20045;-64
2023/04/30 03:19:25;;;;;;;0.10;0.10;;;19.40;99.90;;;;;;5018037;28;20021;-64
2023/04/30 03:21:53;;;;;;;0.10;0.10;;;19.40;99.90;;;;;;5036367;28;20482;-64
2023/04/30 03:24:21;;;;;;;0.40;0.20;;;19.60;99.90;;;;;;5018258;28;20613;-64
2023/04/30 03:26:48;;;;;;;0.10;0.10;;;19.60;99.90;;;;;;5035899;28;20033;-63
2023/04/30 03:29:16;;;;;;;0.10;0.10;;;19.70;99.90;;;;;;5035796;28;20420;-63
2023/04/30 03:31:43;;;;;;;0.10;0.10;;;19.60;99.90;;;;;;5018093;28;20114;-64
2023/04/30 03:34:11;;;;;;;0.00;0.00;;;19.80;99.90;;;;;;5035789;28;20066;-64
2023/04/30 03:36:38;;;;;;;0.20;0.20;;;19.80;99.90;;;;;;5045700;28;20037;-64
2023/04/30 03:39:08;;;;;;;0.30;0.20;;;19.80;99.90;;;;;;5055561;28;20445;-64
2023/04/30 03:41:36;;;;;;;0.15;0.10;;;19.90;99.90;;;;;;5034329;28;20477;-63
2023/04/30 03:44:04;;;;;;;0.10;0.10;;;19.80;99.90;;;;;;5047960;28;20155;-64
2023/04/30 03:46:31;;;;;;;0.05;0.05;;;19.70;99.90;;;;;;5055473;28;20052;-64
2023/04/30 03:48:58;;;;;;;1.35;0.20;;;19.60;99.90;;;;;;5055619;28;20036;-64
2023/04/30 03:51:27;;;;;;;0.00;0.00;;;19.40;99.90;;;;;;5044791;28;20124;-64
2023/04/30 03:53:54;;;;;;;0.35;0.00;;;19.30;99.90;;;;;;5019869;28;20486;-64
2023/04/30 03:56:22;;;;;;;0.10;0.10;;;19.30;99.90;;;;;;5018052;28;20044;-64
2023/04/30 03:58:50;;;;;;;0.43;0.13;;;19.40;99.90;;;;;;5035760;28;20021;-64
2023/04/30 04:01:17;;;;;;;0.15;0.10;;;19.40;99.90;;;;;;5031663;28;20029;-64
2023/04/30 04:03:45;;;;;;;0.00;0.00;;;19.40;99.90;;;;;;5032268;28;20375;-64
2023/04/30 04:06:12;;;;;;;0.00;0.00;;;19.50;99.90;;;;;;5032391;28;20022;-63
2023/04/30 04:08:42;;;;;;;0.10;0.10;;;19.60;99.90;;;;;;5014287;28;20029;-64
2023/04/30 04:11:10;;;;;;;0.88;0.68;;;19.70;99.90;;;;;;5032188;28;20021;-64
2023/04/30 04:13:38;;;;;;;0.13;0.10;;;19.80;99.90;;;;;;5032098;28;20028;-64
2023/04/30 04:16:07;;;;;;;0.88;0.10;;;19.70;99.90;;;;;;5032030;28;20049;-64
2023/04/30 04:18:35;;;;;;;0.17;0.13;;;19.40;99.90;;;;;;5031815;28;20048;-64
2023/04/30 04:21:03;;;;;;;0.10;0.10;;;19.20;99.90;;;;;;5032113;28;20049;-64
2023/04/30 04:23:30;;;;;;;0.10;0.10;;;19.10;99.90;;;;;;5044484;28;20035;-64
2023/04/30 04:25:59;;;;;;;0.20;0.20;;;19.00;99.90;;;;;;5050050;28;20104;-64
2023/04/30 04:28:26;;;;;;;0.10;0.10;;;19.00;99.90;;;;;;5050108;28;20025;-64
2023/04/30 04:30:54;;;;;;;0.10;0.10;;;19.10;99.90;;;;;;5051941;28;20029;-65
2023/04/30 04:33:21;;;;;;;0.10;0.10;;;19.30;99.90;;;;;;5050504;28;20025;-64
2023/04/30 04:35:49;;;;;;;0.28;0.20;;;19.40;99.90;;;;;;5033914;28;20025;-63
2023/04/30 04:38:16;;;;;;;0.15;0.15;;;19.50;99.90;;;;;;5048916;28;20024;-63
2023/04/30 04:40:52;;;;;;;0.10;0.10;;;19.70;99.90;;;;;;5032767;28;20034;-64
2023/04/30 04:43:19;;;;;;;0.00;0.00;;;19.70;99.90;;;;;;5039803;28;20072;-64
2023/04/30 04:45:47;;;;;;;0.00;0.00;;;19.80;99.90;;;;;;5031479;28;20362;-63
2023/04/30 04:48:15;;;;;;;0.00;0.00;;;19.70;99.90;;;;;;5040264;28;20713;-64
2023/04/30 04:50:42;;;;;;;0.20;0.20;;;19.60;99.90;;;;;;5013729;28;20075;-64
2023/04/30 04:53:10;;;;;;;0.10;0.10;;;19.40;99.90;;;;;;5031375;28;20022;-63
2023/04/30 04:55:38;;;;;;;0.08;0.08;;;19.20;99.90;;;;;;5013644;28;20037;-63
2023/04/30 04:58:05;;;;;;;0.40;0.13;;;19.10;99.90;;;;;;5031165;28;20088;-64
2023/04/30 05:00:33;;;;;;;0.70;0.10;;;19.00;99.90;;;;;;5048920;28;20025;-64
2023/04/30 05:03:00;;;;;;;0.20;0.10;;;19.00;99.90;;;;;;5051197;28;20033;-63
2023/04/30 05:05:28;;;;;;;0.20;0.20;;;18.90;99.90;;;;;;5051122;28;20071;-64
2023/04/30 05:07:56;;;;;;;0.10;0.10;;;18.90;99.90;;;;;;5042397;28;20033;-64
2023/04/30 05:10:23;;;;;;;0.65;0.10;;;18.80;99.90;;;;;;5031617;28;20486;-64
2023/04/30 05:12:50;;;;;;;0.15;0.15;;;18.80;99.90;;;;;;5030279;28;20028;-64
2023/04/30 05:15:18;;;;;;;0.40;0.20;;;18.70;99.90;;;;;;5031016;28;20026;-64
2023/04/30 05:17:45;;;;;;;0.13;0.13;;;18.60;99.90;;;;;;5035481;28;20037;-64
2023/04/30 05:20:13;;;;;;;0.30;0.10;;;18.60;99.90;;;;;;5050843;28;20081;-64
2023/04/30 05:22:40;;;;;;;0.22;0.10;;;18.60;99.90;;;;;;5032618;28;20025;-64
2023/04/30 05:25:08;;;;;;;0.03;0.03;;;18.50;99.90;;;;;;5050676;28;20029;-63
2023/04/30 05:27:36;;;;;;;0.10;0.10;;;18.50;99.90;;;;;;5050009;28;20028;-64
2023/04/30 05:30:04;;;;;;;0.25;0.20;;;18.50;99.90;;;;;;5030674;28;20414;-63
2023/04/30 05:32:31;;;;;;;0.15;0.15;;;18.60;99.90;;;;;;5030758;28;20028;-64
2023/04/30 05:34:58;;;;;;;0.25;0.10;;;18.60;99.90;;;;;;5030862;28;20026;-63
2023/04/30 05:37:26;;;;;;;2.33;0.28;;;18.70;99.90;;;;;;5030439;28;20091;-64
2023/04/30 05:39:53;;;;;;;0.10;0.10;;;18.70;99.90;;;;;;5013257;28;20119;-63
2023/04/30 05:42:21;;;;;;;0.17;0.17;;;18.80;99.90;;;;;;5040774;28;20021;-63
2023/04/30 05:44:49;;;;;;;0.30;0.20;;;18.80;99.90;;;;;;5048668;28;20013;-63
2023/04/30 05:47:17;;;;;;;1.15;0.20;;;18.90;99.90;;;;;;5048279;28;20067;-63
2023/04/30 05:49:44;;;;;;;0.20;0.20;;;18.80;99.90;;;;;;5050056;28;20027;-62
2023/04/30 05:52:14;;;;;;;0.10;0.10;;;18.80;99.90;;;;;;5028021;28;20036;-63
2023/04/30 05:54:41;;;;;;;0.85;0.20;;;18.70;99.90;;;;;;5022438;28;20100;-63
2023/04/30 05:57:09;;;;;;;0.10;0.10;;;18.70;99.90;;;;;;5032408;28;20120;-64
2023/04/30 05:59:36;;;;;;;0.15;0.10;;;18.70;99.90;;;;;;5016860;28;20051;-63
2023/04/30 06:02:03;;;;;;;0.10;0.10;;;18.50;99.90;;;;;;5031992;28;20033;-63
2023/04/30 06:04:32;;;;;;;0.30;0.25;;;18.50;99.90;;;;;;5025646;28;20029;-63
2023/04/30 06:07:00;;;;;;;0.30;0.10;;;18.40;99.90;;;;;;5041175;28;20025;-63
2023/04/30 06:09:27;;;;;;;0.22;0.20;;;18.30;99.90;;;;;;5034292;28;20359;-63
2023/04/30 06:11:55;;;;;;;0.63;0.03;;;18.30;99.90;;;;;;5032402;28;20496;-63
2023/04/30 06:14:22;;;;;;;0.13;0.13;;;18.20;99.90;;;;;;5040666;28;20029;-60
2023/04/30 06:16:50;;;;;;;0.10;0.10;;;18.20;99.90;;;;;;5032750;28;20068;-60
2023/04/30 06:19:17;;;;;;;0.20;0.20;;;18.10;99.90;;;;;;5028612;28;20079;-61
2023/04/30 06:21:45;;;;;;;0.10;0.10;;;18.10;99.90;;;;;;5029651;28;20028;-61
2023/04/30 06:24:12;;;;;;;0.30;0.20;;;18.00;99.90;;;;;;5037644;28;20025;-61
2023/04/30 06:26:40;;;;;;;0.55;0.20;;;17.90;99.90;;;;;;5031398;28;20120;-61
2023/04/30 06:29:07;;;;;;;0.32;0.30;;;17.90;99.90;;;;;;5030135;28;20018;-61
2023/04/30 06:31:34;;;;;;;0.45;0.25;;;17.80;99.90;;;;;;5034291;28;20475;-61
2023/04/30 06:34:02;;;;;;;0.95;0.40;;;17.80;99.90;;;;;;5049618;28;20039;-61
2023/04/30 06:36:30;;;;;;;1.10;0.35;;;17.80;99.90;;;;;;5049465;28;20037;-61
2023/04/30 06:38:57;;;;;;;0.35;0.20;;;17.70;99.90;;;;;;5031679;28;20039;-62
2023/04/30 06:41:25;;;;;;;0.38;0.20;;;17.70;99.90;;;;;;5027619;28;20489;-61
2023/04/30 06:43:52;;;;;;;0.38;0.20;;;17.70;99.90;;;;;;5038008;28;20038;-61
2023/04/30 06:46:20;;;;;;;0.30;0.20;;;17.70;99.90;;;;;;5039563;28;20424;-61
2023/04/30 06:48:47;;;;;;;1.33;0.43;;;17.70;99.90;;;;;;5043679;28;20087;-61
2023/04/30 06:51:15;;;;;;;1.77;0.35;;;17.70;99.90;;;;;;5043152;28;20047;-61
2023/04/30 06:53:42;;;;;;;0.60;0.40;;;17.60;99.90;;;;;;5034969;28;20070;-61
2023/04/30 06:56:09;;;;;;;0.77;0.38;;;17.60;99.90;;;;;;5046180;28;20501;-61
2023/04/30 06:58:37;;;;;;;0.30;0.30;;;17.60;99.90;;;;;;5018037;28;20033;-61
2023/04/30 07:01:04;;;;;;;0.65;0.40;;;17.60;99.90;;;;;;5036875;28;20393;-61
2023/04/30 07:03:32;;;;;;;0.90;0.10;;;17.50;99.90;;;;;;5038816;28;20046;-62
2023/04/30 07:05:59;;;;;;;0.45;0.20;;;17.40;99.90;;;;;;5021125;28;20120;-62
2023/04/30 07:08:27;;;;;;;0.43;0.20;;;17.30;99.90;;;;;;5036702;28;20030;-61
2023/04/30 07:10:55;;;;;;;1.55;0.30;;;17.30;99.90;;;;;;5037620;28;20037;-61
2023/04/30 07:13:22;;;;;;;0.10;0.10;;;17.20;99.90;;;;;;5038765;28;20053;-61
2023/04/30 07:15:50;;;;;;;0.35;0.10;;;17.10;99.90;;;;;;5019679;28;20075;-61
2023/04/30 07:18:18;;;;;;;0.35;0.30;;;17.00;99.90;;;;;;5039566;28;20188;-60
2023/04/30 07:20:45;;;;;;;0.10;0.10;;;16.90;99.90;;;;;;5040205;28;20481;-60
2023/04/30 07:23:12;;;;;;;0.70;0.45;;;16.70;99.90;;;;;;5020640;28;20025;-61
2023/04/30 07:25:40;;;;;;;0.10;0.10;;;16.60;99.90;;;;;;5037036;28;20505;-61
2023/04/30 07:28:07;;;;;;;0.20;0.20;;;16.40;99.90;;;;;;5039483;28;20029;-63
2023/04/30 07:30:35;;;;;;;0.20;0.20;;;16.20;99.90;;;;;;5044459;28;20025;-64
2023/04/30 07:33:02;;;;;;;0.55;0.25;;;16.10;99.90;;;;;;5041267;28;20029;-65
2023/04/30 07:35:30;;;;;;;0.52;0.13;;;15.90;99.90;;;;;;5036159;28;20128;-66
2023/04/30 07:37:57;;;;;;;0.45;0.25;;;15.70;99.90;;;;;;5045894;28;20045;-65
2023/04/30 07:40:25;;;;;;;1.45;0.52;;;15.50;99.90;;;;;;5031315;28;20021;-66
2023/04/30 07:42:52;;;;;;;0.55;0.30;;;15.40;99.90;;;;;;5030889;28;20118;-65
2023/04/30 07:45:19;;;;;;;1.90;0.57;;;15.30;99.90;;;;;;5051083;28;20021;-65
2023/04/30 07:47:47;;;;;;;1.52;0.52;;;15.30;99.90;;;;;;5026280;28;20053;-62
2023/04/30 07:50:15;;;;;;;1.73;0.65;;;15.30;99.90;;;;;;5023907;28;20017;-63
2023/04/30 07:52:43;;;;;;;0.63;0.40;;;15.30;99.90;;;;;;5029770;28;20580;-59
2023/04/30 07:55:10;;;;;;;3.67;0.50;;;15.20;99.90;;;;;;5024840;28;20623;-63
2023/04/30 07:57:37;;;;;;;1.60;0.70;;;15.10;99.90;;;;;;5010336;28;20510;-63
2023/04/30 08:00:06;;;;;;;2.92;1.50;;;15.10;99.90;;;;;;5010446;28;20030;-63
2023/04/30 08:02:33;;;;;;;3.40;1.60;;;15.00;99.90;;;;;;5008778;28;20029;-63
2023/04/30 08:05:01;;;;;;;5.07;2.05;;;15.00;99.90;;;;;;5016637;28;20083;-62
2023/04/30 08:07:28;;;;;;;4.10;2.13;;;15.00;99.90;;;;;;5014504;28;20538;-63
2023/04/30 08:09:56;;;;;;;3.88;2.08;;;14.90;99.90;;;;;;5008932;28;20033;-62
2023/04/30 08:12:23;;;;;;;4.55;1.70;;;14.80;99.90;;;;;;5028318;28;20517;-62
2023/04/30 08:14:58;;;;;;;4.10;2.10;;;14.80;99.90;;;;;;5028071;28;20060;-64
2023/04/30 08:17:26;;;;;;;4.88;2.47;;;14.70;99.90;;;;;;5028297;28;20041;-62
2023/04/30 08:19:53;;;;;;;4.90;2.25;;;14.70;99.90;;;;;;5027583;28;20036;-62
2023/04/30 08:22:21;;;;;;;4.07;1.85;;;14.50;99.90;;;;;;5027109;28;20060;-62
2023/04/30 08:24:49;;;;;;;2.80;1.42;;;14.50;99.90;;;;;;5009623;28;20064;-62
2023/04/30 08:27:17;;;;;;;2.35;1.02;;;14.40;99.90;;;;;;5010209;28;20030;-62
2023/04/30 08:29:44;;;;;;;1.58;0.70;;;14.40;99.90;;;;;;5012044;28;20112;-63
2023/04/30 08:32:12;;;;;;;1.13;0.50;;;14.30;99.90;;;;;;5014807;28;20058;-62
2023/04/30 08:34:40;;;;;;;2.55;1.63;;;14.20;99.90;;;;;;5012937;28;20034;-62
2023/04/30 08:37:07;;;;;;;7.40;2.85;;;14.10;99.90;;;;;;5021536;28;20117;-62
2023/04/30 08:39:35;;;;;;;5.93;2.15;;;14.00;99.90;;;;;;5016476;28;20025;-62
2023/04/30 08:42:07;;;;;;;2.83;1.30;;;13.90;99.90;;;;;;5016399;28;20390;-62
2023/04/30 08:44:38;;;;;;;1.63;0.70;;;13.80;99.90;;;;;;5013416;28;20036;-62
2023/04/30 08:47:08;;;;;;;0.75;0.43;;;13.70;99.90;;;;;;5011607;28;20259;-62
2023/04/30 08:49:36;;;;;;;1.98;0.40;;;13.60;99.90;;;;;;5028947;28;20021;-63
2023/04/30 08:52:03;;;;;;;2.58;0.50;;;13.50;99.90;;;;;;5015052;28;20037;-63
2023/04/30 08:54:32;;;;;;;0.40;0.25;;;13.50;99.90;;;;;;5019644;28;20030;-63
2023/04/30 08:57:00;;;;;;;0.20;0.20;;;13.50;99.90;;;;;;5014575;28;20057;-63
2023/04/30 08:59:28;;;;;;;0.28;0.15;;;13.40;99.90;;;;;;5017462;28;20107;-63
2023/04/30 09:01:55;;;;;;;0.35;0.35;;;13.40;99.90;;;;;;5012743;28;20364;-63
2023/04/30 09:04:23;;;;;;;0.55;0.47;;;13.40;99.90;;;;;;5011599;28;20030;-63
2023/04/30 09:06:57;;;;;;;0.63;0.32;;;13.30;99.90;;;;;;5015223;28;20486;-63
2023/04/30 09:09:30;;;;;;;0.47;0.40;;;13.20;99.90;;;;;;5019286;28;20037;-63
2023/04/30 09:12:18;;;;;;;0.47;0.40;;;13.20;99.90;;;;;;5007639;28;20041;-63
2023/04/30 09:15:04;;;;;;;0.70;0.35;;;13.20;99.90;;;;;;5023228;28;20033;-64
2023/04/30 09:17:33;;;;;;;1.10;0.55;;;13.30;99.90;;;;;;5028595;28;20037;-63
2023/04/30 09:20:11;;;;;;;0.57;0.30;;;13.20;99.90;;;;;;5028562;28;20483;-59
2023/04/30 09:22:40;;;;;;;0.43;0.30;;;13.20;99.90;;;;;;5023042;28;20132;-61
2023/04/30 09:25:10;;;;;;;0.68;0.40;;;13.10;99.90;;;;;;5008696;28;20033;-61
2023/04/30 09:27:37;;;;;;;1.65;0.40;;;13.10;99.90;;;;;;5009386;28;20083;-60
2023/04/30 09:30:06;;;;;;;0.65;0.40;;;13.00;99.90;;;;;;5011436;28;20036;-61
2023/04/30 09:32:33;;;;;;;0.60;0.60;;;13.00;99.90;;;;;;5026552;28;20057;-62
2023/04/30 09:35:01;;;;;;;1.70;0.50;;;12.90;99.90;;;;;;5017339;28;20115;-61
2023/04/30 09:37:38;;;;;;;0.63;0.40;;;12.80;99.90;;;;;;5006937;28;20522;-61
2023/04/30 09:40:06;;;;;;;0.70;0.50;;;12.70;99.90;;;;;;5008408;28;20029;-61
2023/04/30 09:42:34;;;;;;;0.85;0.40;;;12.50;99.90;;;;;;5016030;28;20029;-62
2023/04/30 09:45:04;;;;;;;0.50;0.30;;;12.40;99.90;;;;;;5011541;28;20092;-61
2023/04/30 09:47:34;;;;;;;0.30;0.30;;;12.30;99.90;;;;;;5018862;28;20418;-63
2023/04/30 09:50:02;;;;;;;0.40;0.20;;;12.10;99.90;;;;;;5010158;28;20032;-63
2023/04/30 09:52:30;;;;;;;1.25;0.38;;;12.00;99.90;;;;;;5025416;28;20037;-63
2023/04/30 09:54:58;;;;;;;0.30;0.30;;;11.90;99.90;;;;;;5048486;28;20032;-64
2023/04/30 09:57:29;;;;;;;0.20;0.15;;;11.90;99.90;;;;;;5018758;28;20037;-64
2023/04/30 09:59:57;;;;;;;0.80;0.40;;;11.90;99.90;;;;;;5028198;28;20028;-63
2023/04/30 10:02:25;;;;;;;1.33;0.63;;;11.90;99.90;;;;;;5032638;28;20063;-63
2023/04/30 10:04:58;;;;;;;0.38;0.35;;;12.00;99.90;;;;;;5040857;28;20418;-63
2023/04/30 10:07:32;;;;;;;0.85;0.30;;;12.00;99.90;;;;;;5025947;28;20152;-64
2023/04/30 10:10:07;;;;;;;3.05;0.50;;;12.00;99.90;;;;;;5047760;28;20063;-64
2023/04/30 10:12:51;;;;;;;0.98;0.38;;;11.90;99.90;;;;;;5036668;28;20041;-64
2023/04/30 10:15:27;;;;;;;1.25;0.43;;;11.80;99.90;;;;;;5027321;28;20117;-64
2023/04/30 10:18:08;;;;;;;0.47;0.30;;;11.60;99.90;;;;;;5027889;28;20095;-63
2023/04/30 10:20:38;;;;;;;0.63;0.47;;;11.50;99.90;;;;;;5028121;28;20029;-63
2023/04/30 10:23:06;;;;;;;0.40;0.40;;;11.30;99.90;;;;;;5040474;28;20466;-64
2023/04/30 10:25:34;;;;;;;0.30;0.30;;;11.30;99.90;;;;;;5013061;28;20577;-62
2023/04/30 10:28:01;;;;;;;0.85;0.47;;;11.20;99.90;;;;;;5009606;28;20037;-63
2023/04/30 10:30:30;;;;;;;1.42;0.40;;;11.10;99.90;;;;;;5010122;28;20150;-63
2023/04/30 10:33:19;;;;;;;0.40;0.40;;;11.00;99.90;;;;;;5027830;28;20032;-63
2023/04/30 10:35:57;;;;;;;1.35;0.50;;;10.90;99.90;;;;;;5027161;28;20100;-63
2023/04/30 10:38:29;;;;;;;0.60;0.45;;;10.80;99.90;;;;;;5017841;28;20040;-63
2023/04/30 10:41:00;;;;;;;7.55;0.70;;;10.70;99.90;;;;;;5035906;28;20391;-63
2023/04/30 10:43:30;;;;;;;1.92;0.60;;;10.70;99.90;;;;;;5010016;28;20038;-63
2023/04/30 10:45:58;;;;;;;1.60;0.80;;;10.50;99.90;;;;;;5029425;28;20112;-63
2023/04/30 10:48:27;;;;;;;1.05;0.60;;;10.40;99.90;;;;;;5037152;28;20054;-63
2023/04/30 10:50:58;;;;;;;1.38;0.75;;;10.40;99.90;;;;;;5011712;28;20044;-63
2023/04/30 10:53:30;;;;;;;1.30;0.68;;;10.30;99.90;;;;;;5018065;28;20052;-63
2023/04/30 10:56:07;;;;;;;1.87;0.70;;;10.30;99.90;;;;;;5045626;28;20063;-62
2023/04/30 10:58:37;;;;;;;1.63;0.70;;;10.20;99.90;;;;;;5028897;28;20279;-63
2023/04/30 11:01:14;;;;;;;4.53;0.95;;;10.20;99.90;;;;;;5016541;28;20040;-63
2023/04/30 11:04:03;;;;;;;1.92;0.90;;;10.10;99.90;;;;;;5033612;28;20030;-63
2023/04/30 11:06:49;;;;;;;2.70;1.30;;;10.00;99.90;;;;;;5036524;28;20032;-63
2023/04/30 11:09:17;;;;;;;1.95;0.88;;;10.00;99.90;;;;;;5010401;28;20030;-63
2023/04/30 11:12:01;;;;;;;4.35;1.75;;;10.00;99.90;;;;;;5030850;28;20030;-63
2023/04/30 11:14:32;;;;;;;2.28;1.42;;;9.90;99.90;;;;;;5031445;28;20029;-63
2023/04/30 11:17:01;;;;;;;2.63;1.23;;;9.90;99.90;;;;;;5031911;28;20120;-63
2023/04/30 11:19:29;;;;;;;4.60;1.25;;;9.90;99.90;;;;;;5044216;28;20456;-64
2023/04/30 11:22:06;;;;;;;4.32;1.10;;;10.00;99.90;;;;;;5047252;28;20083;-63
2023/04/30 11:25:02;;;;;;;2.60;1.35;;;9.90;99.90;;;;;;5038387;28;20013;-63
2023/04/30 11:27:32;;;;;;;2.90;1.30;;;9.90;99.90;;;;;;5047293;28;20021;-63
2023/04/30 11:30:00;;;;;;;3.33;1.35;;;9.90;99.90;;;;;;5050863;28;20021;-63
2023/04/30 11:32:36;;;;;;;1.63;0.88;;;9.90;99.90;;;;;;5032982;28;20048;-65
2023/04/30 11:35:04;;;;;;;1.92;0.88;;;10.20;99.90;;;;;;5024157;28;20037;-63
2023/04/30 11:37:36;;;;;;;2.15;0.88;;;10.10;99.90;;;;;;5030083;28;20033;-63
2023/04/30 11:40:09;;;;;;;2.42;0.85;;;10.10;99.90;;;;;;5030409;28;20030;-62
2023/04/30 11:42:38;;;;;;;2.42;1.17;;;10.10;99.90;;;;;;5027899;28;20120;-64
2023/04/30 11:45:08;;;;;;;1.77;0.88;;;10.20;99.90;;;;;;5050328;28;20025;-63
2023/04/30 11:47:59;;;;;;;2.45;1.15;;;10.40;99.90;;;;;;5036035;28;20409;-63
2023/04/30 11:50:32;;;;;;;1.75;1.10;;;10.40;99.90;;;;;;5044934;28;20033;-63
2023/04/30 11:53:04;;;;;;;2.75;1.35;;;10.40;99.90;;;;;;5032592;28;20063;-63
2023/04/30 11:55:31;;;;;;;3.72;1.13;;;10.50;99.90;;;;;;5046861;28;20068;-63
2023/04/30 11:57:59;;;;;;;1.95;0.93;;;10.50;99.90;;;;;;5050479;28;20398;-63
2023/04/30 12:00:30;;;;;;;1.70;0.82;;;10.50;99.90;;;;;;5030424;28;20087;-63
2023/04/30 12:03:02;;;;;;;1.92;0.65;;;10.50;99.90;;;;;;5030728;28;20099;-63
2023/04/30 12:05:29;;;;;;;0.95;0.52;;;10.50;99.90;;;;;;5030678;28;20028;-63
2023/04/30 12:08:05;;;;;;;2.92;0.82;;;10.40;99.90;;;;;;5030136;28;20025;-63
2023/04/30 12:10:33;;;;;;;0.80;0.60;;;10.40;99.90;;;;;;5040581;28;20082;-62
2023/04/30 12:13:01;;;;;;;0.98;0.63;;;10.40;99.90;;;;;;5049936;28;20123;-63
2023/04/30 12:15:29;;;;;;;2.45;0.60;;;10.40;99.90;;;;;;5032035;28;20029;-64
2023/04/30 12:17:58;;;;;;;1.17;0.60;;;10.40;99.90;;;;;;5045537;28;20098;-63
2023/04/30 12:20:31;;;;;;;4.15;0.60;;;10.40;99.90;;;;;;5048683;28;20090;-62
2023/04/30 12:22:59;;;;;;;1.00;0.67;;;10.30;99.90;;;;;;5032344;28;20116;-63
2023/04/30 12:25:29;;;;;;;1.67;0.55;;;10.20;99.90;;;;;;5035134;28;20271;-63
2023/04/30 12:27:59;;;;;;;1.40;0.68;;;10.20;99.90;;;;;;5029481;28;20025;-62
2023/04/30 12:30:27;;;;;;;0.80;0.60;;;10.20;99.90;;;;;;5029981;28;20110;-63
2023/04/30 12:32:57;;;;;;;4.40;0.90;;;10.30;99.90;;;;;;5029679;28;20068;-63
2023/04/30 12:35:27;;;;;;;2.58;0.80;;;10.30;99.90;;;;;;5010950;28;20518;-63
2023/04/30 12:38:04;;;;;;;1.73;0.65;;;10.20;99.90;;;;;;5028390;28;20054;-62
2023/04/30 12:40:32;;;;;;;2.72;1.48;;;10.10;99.90;;;;;;5011278;28;20083;-67
2023/04/30 12:43:07;;;;;;;1.65;0.80;;;10.00;99.90;;;;;;5029025;28;20025;-63
2023/04/30 12:45:52;;;;;;;3.10;1.50;;;9.90;99.90;;;;;;5029743;28;20032;-62
2023/04/30 12:48:22;;;;;;;1.30;1.02;;;9.70;99.90;;;;;;5024017;28;20056;-62
2023/04/30 12:51:03;;;;;;;1.85;0.90;;;9.70;99.90;;;;;;5041618;28;20036;-63
2023/04/30 12:53:32;;;;;;;1.63;0.95;;;9.50;99.90;;;;;;5029105;28;20037;-63
2023/04/30 12:56:16;;;;;;;1.77;1.00;;;9.50;99.90;;;;;;5028925;28;20025;-63
2023/04/30 12:58:46;;;;;;;2.08;1.08;;;9.30;99.90;;;;;;5028370;28;20037;-64
2023/04/30 13:01:19;;;;;;;1.80;0.90;;;9.20;99.90;;;;;;5042534;28;20037;-65